sensor_id;sensor_type;location;lat;lon;timestamp;P1;durP1;ratioP1;P2;durP2;ratioP2
69712;SDS011;56980;51.826;4.424;2022-07-23T00:01:29;9.88;;;1.80;;
69712;SDS011;56980;51.826;4.424;2022-07-23T00:03:56;3.65;;;1.60;;
69712;SDS011;56980;51.826;4.424;2022-07-23T00:06:21;2.23;;;1.33;;
69712;SDS011;56980;51.826;4.424;2022-07-23T00:08:47;6.93;;;2.08;;
69712;SDS011;56980;51.826;4.424;2022-07-23T00:11:13;4.73;;;1.63;;
69712;SDS011;56980;51.826;4.424;2022-07-23T00:13:39;3.30;;;1.40;;
69712;SDS011;56980;51.826;4.424;2022-07-23T00:16:04;6.13;;;1.70;;
69712;SDS011;56980;51.826;4.424;2022-07-23T00:18:30;6.77;;;1.57;;
69712;SDS011;56980;51.826;4.424;2022-07-23T00:20:56;3.67;;;1.70;;
69712;SDS011;56980;51.826;4.424;2022-07-23T00:23:43;4.95;;;1.50;;
69712;SDS011;56980;51.826;4.424;2022-07-23T00:26:08;2.20;;;1.40;;
69712;SDS011;56980;51.826;4.424;2022-07-23T00:28:35;4.43;;;1.20;;
69712;SDS011;56980;51.826;4.424;2022-07-23T00:31:00;3.60;;;1.60;;
69712;SDS011;56980;51.826;4.424;2022-07-23T00:33:26;7.72;;;1.60;;
69712;SDS011;56980;51.826;4.424;2022-07-23T00:35:51;5.17;;;1.70;;
69712;SDS011;56980;51.826;4.424;2022-07-23T00:38:17;3.80;;;1.40;;
69712;SDS011;56980;51.826;4.424;2022-07-23T00:40:42;3.13;;;1.17;;
69712;SDS011;56980;51.826;4.424;2022-07-23T00:43:07;4.90;;;1.52;;
69712;SDS011;56980;51.826;4.424;2022-07-23T00:45:33;5.00;;;1.37;;
69712;SDS011;56980;51.826;4.424;2022-07-23T00:48:02;2.63;;;1.40;;
69712;SDS011;56980;51.826;4.424;2022-07-23T00:50:30;1.90;;;1.10;;
69712;SDS011;56980;51.826;4.424;2022-07-23T00:53:00;5.43;;;1.40;;
69712;SDS011;56980;51.826;4.424;2022-07-23T00:55:25;2.47;;;1.20;;
69712;SDS011;56980;51.826;4.424;2022-07-23T00:57:51;4.50;;;1.77;;
69712;SDS011;56980;51.826;4.424;2022-07-23T01:00:18;3.93;;;1.40;;
69712;SDS011;56980;51.826;4.424;2022-07-23T01:02:44;2.95;;;1.23;;
69712;SDS011;56980;51.826;4.424;2022-07-23T01:05:09;2.93;;;1.37;;
69712;SDS011;56980;51.826;4.424;2022-07-23T01:07:35;2.90;;;1.40;;
69712;SDS011;56980;51.826;4.424;2022-07-23T01:10:01;5.45;;;1.65;;
69712;SDS011;56980;51.826;4.424;2022-07-23T01:12:27;4.10;;;1.30;;
69712;SDS011;56980;51.826;4.424;2022-07-23T01:14:53;3.50;;;1.60;;
69712;SDS011;56980;51.826;4.424;2022-07-23T01:17:19;6.07;;;1.58;;
69712;SDS011;56980;51.826;4.424;2022-07-23T01:19:45;2.03;;;1.40;;
69712;SDS011;56980;51.826;4.424;2022-07-23T01:22:10;3.83;;;1.40;;
69712;SDS011;56980;51.826;4.424;2022-07-23T01:24:35;5.23;;;1.47;;
69712;SDS011;56980;51.826;4.424;2022-07-23T01:27:01;3.17;;;1.33;;
69712;SDS011;56980;51.826;4.424;2022-07-23T01:29:27;3.20;;;1.30;;
69712;SDS011;56980;51.826;4.424;2022-07-23T01:31:52;3.77;;;1.47;;
69712;SDS011;56980;51.826;4.424;2022-07-23T01:34:17;3.40;;;1.70;;
69712;SDS011;56980;51.826;4.424;2022-07-23T01:36:43;2.83;;;1.17;;
69712;SDS011;56980;51.826;4.424;2022-07-23T01:39:10;4.03;;;1.33;;
69712;SDS011;56980;51.826;4.424;2022-07-23T01:41:36;2.78;;;2.08;;
69712;SDS011;56980;51.826;4.424;2022-07-23T01:44:01;7.77;;;2.13;;
69712;SDS011;56980;51.826;4.424;2022-07-23T01:46:27;3.75;;;2.00;;
69712;SDS011;56980;51.826;4.424;2022-07-23T01:48:52;2.43;;;1.80;;
69712;SDS011;56980;51.826;4.424;2022-07-23T01:51:18;4.10;;;1.90;;
69712;SDS011;56980;51.826;4.424;2022-07-23T01:53:43;7.27;;;2.00;;
69712;SDS011;56980;51.826;4.424;2022-07-23T01:56:09;2.97;;;1.80;;
69712;SDS011;56980;51.826;4.424;2022-07-23T01:58:34;4.43;;;2.40;;
69712;SDS011;56980;51.826;4.424;2022-07-23T02:00:59;4.37;;;2.07;;
69712;SDS011;56980;51.826;4.424;2022-07-23T02:03:26;5.65;;;2.10;;
69712;SDS011;56980;51.826;4.424;2022-07-23T02:05:52;4.50;;;2.33;;
69712;SDS011;56980;51.826;4.424;2022-07-23T02:08:17;5.33;;;2.30;;
69712;SDS011;56980;51.826;4.424;2022-07-23T02:10:43;11.20;;;2.22;;
69712;SDS011;56980;51.826;4.424;2022-07-23T02:13:09;3.60;;;2.10;;
69712;SDS011;56980;51.826;4.424;2022-07-23T02:15:35;6.88;;;2.38;;
69712;SDS011;56980;51.826;4.424;2022-07-23T02:18:00;4.97;;;2.30;;
69712;SDS011;56980;51.826;4.424;2022-07-23T02:20:25;9.67;;;3.10;;
69712;SDS011;56980;51.826;4.424;2022-07-23T02:22:51;4.30;;;2.25;;
69712;SDS011;56980;51.826;4.424;2022-07-23T02:25:17;6.03;;;2.30;;
69712;SDS011;56980;51.826;4.424;2022-07-23T02:27:46;5.35;;;2.03;;
69712;SDS011;56980;51.826;4.424;2022-07-23T02:30:11;5.33;;;2.33;;
69712;SDS011;56980;51.826;4.424;2022-07-23T02:32:37;3.97;;;2.37;;
69712;SDS011;56980;51.826;4.424;2022-07-23T02:35:04;6.35;;;2.65;;
69712;SDS011;56980;51.826;4.424;2022-07-23T02:37:30;5.40;;;2.50;;
69712;SDS011;56980;51.826;4.424;2022-07-23T02:39:56;7.40;;;3.13;;
69712;SDS011;56980;51.826;4.424;2022-07-23T02:42:21;3.33;;;2.25;;
69712;SDS011;56980;51.826;4.424;2022-07-23T02:44:48;5.97;;;2.50;;
69712;SDS011;56980;51.826;4.424;2022-07-23T02:47:14;9.38;;;2.65;;
69712;SDS011;56980;51.826;4.424;2022-07-23T02:49:39;2.87;;;2.37;;
69712;SDS011;56980;51.826;4.424;2022-07-23T02:52:05;3.80;;;2.10;;
69712;SDS011;56980;51.826;4.424;2022-07-23T02:54:30;4.20;;;2.10;;
69712;SDS011;56980;51.826;4.424;2022-07-23T02:56:55;4.63;;;2.30;;
69712;SDS011;56980;51.826;4.424;2022-07-23T02:59:21;3.75;;;2.40;;
69712;SDS011;56980;51.826;4.424;2022-07-23T03:01:46;4.93;;;2.37;;
69712;SDS011;56980;51.826;4.424;2022-07-23T03:04:12;5.00;;;2.70;;
69712;SDS011;56980;51.826;4.424;2022-07-23T03:06:37;3.90;;;2.37;;
69712;SDS011;56980;51.826;4.424;2022-07-23T03:09:03;4.35;;;2.65;;
69712;SDS011;56980;51.826;4.424;2022-07-23T03:11:31;4.45;;;2.60;;
69712;SDS011;56980;51.826;4.424;2022-07-23T03:13:56;7.90;;;2.00;;
69712;SDS011;56980;51.826;4.424;2022-07-23T03:16:22;6.43;;;2.70;;
69712;SDS011;56980;51.826;4.424;2022-07-23T03:18:47;3.40;;;2.20;;
69712;SDS011;56980;51.826;4.424;2022-07-23T03:21:13;7.57;;;2.43;;
69712;SDS011;56980;51.826;4.424;2022-07-23T03:23:38;5.15;;;2.30;;
69712;SDS011;56980;51.826;4.424;2022-07-23T03:26:04;4.40;;;1.80;;
69712;SDS011;56980;51.826;4.424;2022-07-23T03:28:35;5.90;;;1.88;;
69712;SDS011;56980;51.826;4.424;2022-07-23T03:31:00;5.90;;;2.20;;
69712;SDS011;56980;51.826;4.424;2022-07-23T03:33:25;2.73;;;2.33;;
69712;SDS011;56980;51.826;4.424;2022-07-23T03:35:51;10.50;;;2.57;;
69712;SDS011;56980;51.826;4.424;2022-07-23T03:38:16;5.30;;;2.50;;
69712;SDS011;56980;51.826;4.424;2022-07-23T03:40:42;3.23;;;2.30;;
69712;SDS011;56980;51.826;4.424;2022-07-23T03:43:07;7.60;;;2.53;;
69712;SDS011;56980;51.826;4.424;2022-07-23T03:45:33;4.43;;;2.30;;
69712;SDS011;56980;51.826;4.424;2022-07-23T03:47:59;3.65;;;1.98;;
69712;SDS011;56980;51.826;4.424;2022-07-23T03:50:25;4.90;;;2.33;;
69712;SDS011;56980;51.826;4.424;2022-07-23T03:52:50;4.30;;;2.03;;
69712;SDS011;56980;51.826;4.424;2022-07-23T03:55:16;4.60;;;2.08;;
69712;SDS011;56980;51.826;4.424;2022-07-23T03:57:41;4.10;;;2.20;;
69712;SDS011;56980;51.826;4.424;2022-07-23T04:00:08;7.20;;;2.33;;
69712;SDS011;56980;51.826;4.424;2022-07-23T04:02:35;4.75;;;2.50;;
69712;SDS011;56980;51.826;4.424;2022-07-23T04:05:02;6.43;;;2.30;;
69712;SDS011;56980;51.826;4.424;2022-07-23T04:07:29;5.07;;;2.40;;
69712;SDS011;56980;51.826;4.424;2022-07-23T04:09:54;4.15;;;2.40;;
69712;SDS011;56980;51.826;4.424;2022-07-23T04:12:20;2.40;;;1.90;;
69712;SDS011;56980;51.826;4.424;2022-07-23T04:14:45;4.37;;;2.00;;
69712;SDS011;56980;51.826;4.424;2022-07-23T04:17:11;6.03;;;2.10;;
69712;SDS011;56980;51.826;4.424;2022-07-23T04:19:37;5.00;;;2.07;;
69712;SDS011;56980;51.826;4.424;2022-07-23T04:22:07;4.57;;;1.85;;
69712;SDS011;56980;51.826;4.424;2022-07-23T04:24:33;5.22;;;2.13;;
69712;SDS011;56980;51.826;4.424;2022-07-23T04:26:59;2.67;;;1.70;;
69712;SDS011;56980;51.826;4.424;2022-07-23T04:29:24;4.28;;;2.03;;
69712;SDS011;56980;51.826;4.424;2022-07-23T04:31:50;4.93;;;2.57;;
69712;SDS011;56980;51.826;4.424;2022-07-23T04:34:16;4.37;;;2.40;;
69712;SDS011;56980;51.826;4.424;2022-07-23T04:36:41;4.75;;;1.98;;
69712;SDS011;56980;51.826;4.424;2022-07-23T04:39:07;3.90;;;2.27;;
69712;SDS011;56980;51.826;4.424;2022-07-23T04:41:32;5.90;;;2.00;;
69712;SDS011;56980;51.826;4.424;2022-07-23T04:43:59;6.80;;;2.05;;
69712;SDS011;56980;51.826;4.424;2022-07-23T04:46:25;4.57;;;1.75;;
69712;SDS011;56980;51.826;4.424;2022-07-23T04:48:50;4.80;;;2.00;;
69712;SDS011;56980;51.826;4.424;2022-07-23T04:51:15;5.00;;;2.13;;
69712;SDS011;56980;51.826;4.424;2022-07-23T04:53:41;6.10;;;2.13;;
69712;SDS011;56980;51.826;4.424;2022-07-23T04:56:06;3.10;;;1.80;;
69712;SDS011;56980;51.826;4.424;2022-07-23T04:58:32;3.72;;;1.67;;
69712;SDS011;56980;51.826;4.424;2022-07-23T05:00:57;3.80;;;1.57;;
69712;SDS011;56980;51.826;4.424;2022-07-23T05:03:23;4.17;;;2.00;;
69712;SDS011;56980;51.826;4.424;2022-07-23T05:05:48;5.27;;;1.70;;
69712;SDS011;56980;51.826;4.424;2022-07-23T05:08:13;4.47;;;1.80;;
69712;SDS011;56980;51.826;4.424;2022-07-23T05:10:39;5.73;;;2.43;;
69712;SDS011;56980;51.826;4.424;2022-07-23T05:13:05;3.75;;;1.60;;
69712;SDS011;56980;51.826;4.424;2022-07-23T05:15:30;9.07;;;2.13;;
69712;SDS011;56980;51.826;4.424;2022-07-23T05:17:56;3.73;;;1.73;;
69712;SDS011;56980;51.826;4.424;2022-07-23T05:20:21;6.07;;;1.87;;
69712;SDS011;56980;51.826;4.424;2022-07-23T05:22:47;3.60;;;1.90;;
69712;SDS011;56980;51.826;4.424;2022-07-23T05:25:13;4.43;;;1.80;;
69712;SDS011;56980;51.826;4.424;2022-07-23T05:27:38;5.97;;;2.30;;
69712;SDS011;56980;51.826;4.424;2022-07-23T05:30:04;8.13;;;1.90;;
69712;SDS011;56980;51.826;4.424;2022-07-23T05:32:31;4.63;;;1.45;;
69712;SDS011;56980;51.826;4.424;2022-07-23T05:34:57;4.18;;;1.48;;
69712;SDS011;56980;51.826;4.424;2022-07-23T05:37:22;4.13;;;1.63;;
69712;SDS011;56980;51.826;4.424;2022-07-23T05:39:48;3.93;;;1.80;;
69712;SDS011;56980;51.826;4.424;2022-07-23T05:42:13;3.97;;;1.40;;
69712;SDS011;56980;51.826;4.424;2022-07-23T05:44:39;6.47;;;1.98;;
69712;SDS011;56980;51.826;4.424;2022-07-23T05:47:05;4.03;;;1.60;;
69712;SDS011;56980;51.826;4.424;2022-07-23T05:49:31;5.77;;;1.47;;
69712;SDS011;56980;51.826;4.424;2022-07-23T05:51:57;4.73;;;1.73;;
69712;SDS011;56980;51.826;4.424;2022-07-23T05:54:23;2.70;;;1.75;;
69712;SDS011;56980;51.826;4.424;2022-07-23T05:56:48;3.63;;;2.03;;
69712;SDS011;56980;51.826;4.424;2022-07-23T05:59:15;4.53;;;1.70;;
69712;SDS011;56980;51.826;4.424;2022-07-23T06:01:40;4.23;;;1.70;;
69712;SDS011;56980;51.826;4.424;2022-07-23T06:04:06;4.03;;;1.60;;
69712;SDS011;56980;51.826;4.424;2022-07-23T06:06:32;4.63;;;1.80;;
69712;SDS011;56980;51.826;4.424;2022-07-23T06:08:58;5.43;;;2.07;;
69712;SDS011;56980;51.826;4.424;2022-07-23T06:11:23;5.10;;;2.13;;
69712;SDS011;56980;51.826;4.424;2022-07-23T06:13:48;6.23;;;2.60;;
69712;SDS011;56980;51.826;4.424;2022-07-23T06:16:14;6.70;;;2.10;;
69712;SDS011;56980;51.826;4.424;2022-07-23T06:18:39;2.83;;;1.63;;
69712;SDS011;56980;51.826;4.424;2022-07-23T06:21:07;5.35;;;2.13;;
69712;SDS011;56980;51.826;4.424;2022-07-23T06:23:32;6.40;;;1.90;;
69712;SDS011;56980;51.826;4.424;2022-07-23T06:25:58;5.20;;;1.97;;
69712;SDS011;56980;51.826;4.424;2022-07-23T06:28:23;4.90;;;2.17;;
69712;SDS011;56980;51.826;4.424;2022-07-23T06:30:49;6.30;;;2.45;;
69712;SDS011;56980;51.826;4.424;2022-07-23T06:33:15;10.50;;;2.30;;
69712;SDS011;56980;51.826;4.424;2022-07-23T06:35:40;3.73;;;2.00;;
69712;SDS011;56980;51.826;4.424;2022-07-23T06:38:05;7.75;;;2.00;;
69712;SDS011;56980;51.826;4.424;2022-07-23T06:40:31;4.40;;;1.70;;
69712;SDS011;56980;51.826;4.424;2022-07-23T06:42:56;6.23;;;1.90;;
69712;SDS011;56980;51.826;4.424;2022-07-23T06:45:22;6.57;;;1.73;;
69712;SDS011;56980;51.826;4.424;2022-07-23T06:47:47;4.90;;;1.95;;
69712;SDS011;56980;51.826;4.424;2022-07-23T06:50:13;6.13;;;2.23;;
69712;SDS011;56980;51.826;4.424;2022-07-23T06:52:38;4.27;;;1.50;;
69712;SDS011;56980;51.826;4.424;2022-07-23T06:55:03;3.57;;;1.73;;
69712;SDS011;56980;51.826;4.424;2022-07-23T06:57:29;5.00;;;1.90;;
69712;SDS011;56980;51.826;4.424;2022-07-23T06:59:55;5.97;;;1.70;;
69712;SDS011;56980;51.826;4.424;2022-07-23T07:02:20;2.80;;;2.00;;
69712;SDS011;56980;51.826;4.424;2022-07-23T07:04:46;4.57;;;1.70;;
69712;SDS011;56980;51.826;4.424;2022-07-23T07:07:11;3.77;;;1.77;;
69712;SDS011;56980;51.826;4.424;2022-07-23T07:09:37;3.83;;;1.67;;
69712;SDS011;56980;51.826;4.424;2022-07-23T07:12:03;4.30;;;1.70;;
69712;SDS011;56980;51.826;4.424;2022-07-23T07:14:29;5.20;;;1.70;;
69712;SDS011;56980;51.826;4.424;2022-07-23T07:16:55;4.93;;;2.00;;
69712;SDS011;56980;51.826;4.424;2022-07-23T07:19:22;4.40;;;1.77;;
69712;SDS011;56980;51.826;4.424;2022-07-23T07:21:47;7.97;;;2.13;;
69712;SDS011;56980;51.826;4.424;2022-07-23T07:24:13;2.73;;;2.00;;
69712;SDS011;56980;51.826;4.424;2022-07-23T07:26:38;3.75;;;1.40;;
69712;SDS011;56980;51.826;4.424;2022-07-23T07:29:04;5.77;;;1.90;;
69712;SDS011;56980;51.826;4.424;2022-07-23T07:31:30;4.97;;;2.10;;
69712;SDS011;56980;51.826;4.424;2022-07-23T07:33:55;7.17;;;1.90;;
69712;SDS011;56980;51.826;4.424;2022-07-23T07:36:23;4.43;;;1.50;;
69712;SDS011;56980;51.826;4.424;2022-07-23T07:38:49;5.60;;;2.20;;
69712;SDS011;56980;51.826;4.424;2022-07-23T07:41:15;6.55;;;1.80;;
69712;SDS011;56980;51.826;4.424;2022-07-23T07:43:40;2.63;;;1.43;;
69712;SDS011;56980;51.826;4.424;2022-07-23T07:46:06;5.20;;;1.92;;
69712;SDS011;56980;51.826;4.424;2022-07-23T07:48:35;6.10;;;1.50;;
69712;SDS011;56980;51.826;4.424;2022-07-23T07:51:06;6.38;;;1.70;;
69712;SDS011;56980;51.826;4.424;2022-07-23T07:53:31;5.07;;;1.50;;
69712;SDS011;56980;51.826;4.424;2022-07-23T07:55:57;4.93;;;1.77;;
69712;SDS011;56980;51.826;4.424;2022-07-23T07:58:22;3.37;;;1.60;;
69712;SDS011;56980;51.826;4.424;2022-07-23T08:00:48;4.90;;;1.63;;
69712;SDS011;56980;51.826;4.424;2022-07-23T08:03:17;5.53;;;1.58;;
69712;SDS011;56980;51.826;4.424;2022-07-23T08:05:42;3.37;;;1.60;;
69712;SDS011;56980;51.826;4.424;2022-07-23T08:08:07;4.33;;;1.90;;
69712;SDS011;56980;51.826;4.424;2022-07-23T08:10:34;2.33;;;1.38;;
69712;SDS011;56980;51.826;4.424;2022-07-23T08:13:00;4.57;;;1.90;;
69712;SDS011;56980;51.826;4.424;2022-07-23T08:15:26;3.73;;;1.50;;
69712;SDS011;56980;51.826;4.424;2022-07-23T08:17:54;5.22;;;1.60;;
69712;SDS011;56980;51.826;4.424;2022-07-23T08:20:22;5.40;;;1.30;;
69712;SDS011;56980;51.826;4.424;2022-07-23T08:25:22;4.32;;;1.40;;
69712;SDS011;56980;51.826;4.424;2022-07-23T08:27:50;3.97;;;1.73;;
69712;SDS011;56980;51.826;4.424;2022-07-23T08:30:16;5.43;;;1.65;;
69712;SDS011;56980;51.826;4.424;2022-07-23T08:35:24;3.63;;;1.63;;
69712;SDS011;56980;51.826;4.424;2022-07-23T08:37:54;5.95;;;1.73;;
69712;SDS011;56980;51.826;4.424;2022-07-23T08:40:21;4.43;;;1.65;;
69712;SDS011;56980;51.826;4.424;2022-07-23T08:42:48;2.20;;;1.58;;
69712;SDS011;56980;51.826;4.424;2022-07-23T08:45:16;3.38;;;1.60;;
69712;SDS011;56980;51.826;4.424;2022-07-23T08:47:44;4.83;;;1.70;;
69712;SDS011;56980;51.826;4.424;2022-07-23T08:50:10;2.05;;;1.35;;
69712;SDS011;56980;51.826;4.424;2022-07-23T08:52:36;3.53;;;1.60;;
69712;SDS011;56980;51.826;4.424;2022-07-23T08:55:03;2.75;;;1.50;;
69712;SDS011;56980;51.826;4.424;2022-07-23T08:57:29;2.05;;;1.50;;
69712;SDS011;56980;51.826;4.424;2022-07-23T08:59:56;11.10;;;2.00;;
69712;SDS011;56980;51.826;4.424;2022-07-23T09:02:22;6.40;;;1.60;;
69712;SDS011;56980;51.826;4.424;2022-07-23T09:04:48;3.47;;;1.40;;
69712;SDS011;56980;51.826;4.424;2022-07-23T09:07:13;6.40;;;1.73;;
69712;SDS011;56980;51.826;4.424;2022-07-23T09:09:39;4.77;;;1.53;;
69712;SDS011;56980;51.826;4.424;2022-07-23T09:12:08;3.20;;;1.70;;
69712;SDS011;56980;51.826;4.424;2022-07-23T09:14:38;2.58;;;1.40;;
69712;SDS011;56980;51.826;4.424;2022-07-23T09:17:10;3.75;;;1.65;;
69712;SDS011;56980;51.826;4.424;2022-07-23T09:19:36;4.72;;;1.55;;
69712;SDS011;56980;51.826;4.424;2022-07-23T09:25:03;2.53;;;1.70;;
69712;SDS011;56980;51.826;4.424;2022-07-23T09:30:32;6.65;;;1.50;;
69712;SDS011;56980;51.826;4.424;2022-07-23T09:33:06;3.05;;;1.50;;
69712;SDS011;56980;51.826;4.424;2022-07-23T09:35:43;8.38;;;1.85;;
69712;SDS011;56980;51.826;4.424;2022-07-23T09:38:17;3.40;;;1.40;;
69712;SDS011;56980;51.826;4.424;2022-07-23T09:40:43;2.03;;;1.20;;
69712;SDS011;56980;51.826;4.424;2022-07-23T09:43:10;1.75;;;1.10;;
69712;SDS011;56980;51.826;4.424;2022-07-23T09:45:35;4.20;;;1.77;;
69712;SDS011;56980;51.826;4.424;2022-07-23T09:48:11;3.72;;;1.58;;
69712;SDS011;56980;51.826;4.424;2022-07-23T09:50:38;4.40;;;1.43;;
69712;SDS011;56980;51.826;4.424;2022-07-23T09:53:04;7.32;;;1.50;;
69712;SDS011;56980;51.826;4.424;2022-07-23T09:55:33;3.67;;;1.50;;
69712;SDS011;56980;51.826;4.424;2022-07-23T09:58:01;4.28;;;1.60;;
69712;SDS011;56980;51.826;4.424;2022-07-23T10:00:27;5.00;;;1.67;;
69712;SDS011;56980;51.826;4.424;2022-07-23T10:02:54;3.55;;;1.63;;
69712;SDS011;56980;51.826;4.424;2022-07-23T10:05:20;2.70;;;1.40;;
69712;SDS011;56980;51.826;4.424;2022-07-23T10:07:46;1.90;;;1.53;;
69712;SDS011;56980;51.826;4.424;2022-07-23T10:10:12;1.83;;;1.50;;
69712;SDS011;56980;51.826;4.424;2022-07-23T10:12:39;1.85;;;1.40;;
69712;SDS011;56980;51.826;4.424;2022-07-23T10:15:05;2.57;;;1.50;;
69712;SDS011;56980;51.826;4.424;2022-07-23T10:17:32;4.45;;;1.50;;
69712;SDS011;56980;51.826;4.424;2022-07-23T10:19:58;4.60;;;1.60;;
69712;SDS011;56980;51.826;4.424;2022-07-23T10:25:21;4.75;;;1.42;;
69712;SDS011;56980;51.826;4.424;2022-07-23T10:33:41;1.50;;;1.27;;
69712;SDS011;56980;51.826;4.424;2022-07-23T10:36:37;3.67;;;1.30;;
69712;SDS011;56980;51.826;4.424;2022-07-23T10:39:19;4.15;;;1.50;;
69712;SDS011;56980;51.826;4.424;2022-07-23T10:41:49;2.05;;;1.27;;
69712;SDS011;56980;51.826;4.424;2022-07-23T10:44:17;2.25;;;1.50;;
69712;SDS011;56980;51.826;4.424;2022-07-23T10:47:01;2.03;;;1.48;;
69712;SDS011;56980;51.826;4.424;2022-07-23T10:49:33;1.87;;;1.30;;
69712;SDS011;56980;51.826;4.424;2022-07-23T10:57:07;5.93;;;1.33;;
69712;SDS011;56980;51.826;4.424;2022-07-23T11:02:27;2.47;;;1.10;;
69712;SDS011;56980;51.826;4.424;2022-07-23T11:04:58;1.98;;;1.30;;
69712;SDS011;56980;51.826;4.424;2022-07-23T11:07:29;1.70;;;1.13;;
69712;SDS011;56980;51.826;4.424;2022-07-23T11:10:02;4.55;;;1.38;;
69712;SDS011;56980;51.826;4.424;2022-07-23T11:15:07;2.50;;;1.30;;
69712;SDS011;56980;51.826;4.424;2022-07-23T11:17:40;2.67;;;1.30;;
69712;SDS011;56980;51.826;4.424;2022-07-23T11:20:27;2.53;;;1.50;;
69712;SDS011;56980;51.826;4.424;2022-07-23T11:22:58;1.52;;;1.20;;
69712;SDS011;56980;51.826;4.424;2022-07-23T11:27:50;3.87;;;1.30;;
69712;SDS011;56980;51.826;4.424;2022-07-23T11:32:51;1.57;;;1.37;;
69712;SDS011;56980;51.826;4.424;2022-07-23T11:35:21;2.03;;;1.20;;
69712;SDS011;56980;51.826;4.424;2022-07-23T11:37:52;4.70;;;1.60;;
69712;SDS011;56980;51.826;4.424;2022-07-23T11:40:23;2.45;;;1.60;;
69712;SDS011;56980;51.826;4.424;2022-07-23T11:45:19;3.85;;;2.17;;
69712;SDS011;56980;51.826;4.424;2022-07-23T11:47:45;3.17;;;1.47;;
69712;SDS011;56980;51.826;4.424;2022-07-23T11:50:11;4.77;;;1.57;;
69712;SDS011;56980;51.826;4.424;2022-07-23T11:52:38;2.90;;;1.50;;
69712;SDS011;56980;51.826;4.424;2022-07-23T11:55:05;3.25;;;1.48;;
69712;SDS011;56980;51.826;4.424;2022-07-23T11:57:33;3.45;;;1.40;;
69712;SDS011;56980;51.826;4.424;2022-07-23T12:00:08;3.38;;;1.85;;
69712;SDS011;56980;51.826;4.424;2022-07-23T12:02:36;1.93;;;1.23;;
69712;SDS011;56980;51.826;4.424;2022-07-23T12:05:05;3.65;;;1.63;;
69712;SDS011;56980;51.826;4.424;2022-07-23T12:07:39;6.07;;;1.70;;
69712;SDS011;56980;51.826;4.424;2022-07-23T12:12:50;4.55;;;1.50;;
69712;SDS011;56980;51.826;4.424;2022-07-23T12:15:24;5.03;;;1.80;;
69712;SDS011;56980;51.826;4.424;2022-07-23T12:18:00;5.10;;;1.67;;
69712;SDS011;56980;51.826;4.424;2022-07-23T12:20:40;2.75;;;1.85;;
69712;SDS011;56980;51.826;4.424;2022-07-23T12:23:08;3.28;;;1.50;;
69712;SDS011;56980;51.826;4.424;2022-07-23T12:25:36;2.55;;;1.70;;
69712;SDS011;56980;51.826;4.424;2022-07-23T12:28:07;4.87;;;1.90;;
69712;SDS011;56980;51.826;4.424;2022-07-23T12:30:48;4.95;;;2.20;;
69712;SDS011;56980;51.826;4.424;2022-07-23T12:33:23;2.83;;;1.90;;
69712;SDS011;56980;51.826;4.424;2022-07-23T12:35:52;2.90;;;2.00;;
69712;SDS011;56980;51.826;4.424;2022-07-23T12:38:22;3.20;;;2.00;;
69712;SDS011;56980;51.826;4.424;2022-07-23T12:40:53;3.87;;;1.93;;
69712;SDS011;56980;51.826;4.424;2022-07-23T12:48:36;2.85;;;1.58;;
69712;SDS011;56980;51.826;4.424;2022-07-23T12:56:32;3.10;;;1.38;;
69712;SDS011;56980;51.826;4.424;2022-07-23T12:59:04;4.07;;;1.60;;
69712;SDS011;56980;51.826;4.424;2022-07-23T13:01:32;3.92;;;1.20;;
69712;SDS011;56980;51.826;4.424;2022-07-23T13:06:31;2.03;;;1.10;;
69712;SDS011;56980;51.826;4.424;2022-07-23T13:08:59;2.28;;;1.20;;
69712;SDS011;56980;51.826;4.424;2022-07-23T13:11:25;1.50;;;1.10;;
69712;SDS011;56980;51.826;4.424;2022-07-23T13:13:50;1.70;;;1.10;;
69712;SDS011;56980;51.826;4.424;2022-07-23T13:16:16;1.98;;;1.10;;
69712;SDS011;56980;51.826;4.424;2022-07-23T13:18:42;1.93;;;1.40;;
69712;SDS011;56980;51.826;4.424;2022-07-23T13:21:07;5.47;;;1.00;;
69712;SDS011;56980;51.826;4.424;2022-07-23T13:23:34;1.20;;;1.10;;
69712;SDS011;56980;51.826;4.424;2022-07-23T13:26:04;1.30;;;1.10;;
69712;SDS011;56980;51.826;4.424;2022-07-23T13:28:30;1.90;;;0.97;;
69712;SDS011;56980;51.826;4.424;2022-07-23T13:30:55;1.25;;;1.13;;
69712;SDS011;56980;51.826;4.424;2022-07-23T13:33:22;2.10;;;1.17;;
69712;SDS011;56980;51.826;4.424;2022-07-23T13:35:49;2.58;;;1.33;;
69712;SDS011;56980;51.826;4.424;2022-07-23T13:38:16;1.20;;;1.00;;
69712;SDS011;56980;51.826;4.424;2022-07-23T13:40:43;6.18;;;1.25;;
69712;SDS011;56980;51.826;4.424;2022-07-23T13:43:11;3.38;;;1.48;;
69712;SDS011;56980;51.826;4.424;2022-07-23T13:45:39;1.80;;;1.10;;
69712;SDS011;56980;51.826;4.424;2022-07-23T13:48:12;1.67;;;1.20;;
69712;SDS011;56980;51.826;4.424;2022-07-23T13:50:48;1.90;;;1.40;;
69712;SDS011;56980;51.826;4.424;2022-07-23T13:53:15;2.70;;;1.80;;
69712;SDS011;56980;51.826;4.424;2022-07-23T13:55:43;1.92;;;1.52;;
69712;SDS011;56980;51.826;4.424;2022-07-23T13:58:09;1.90;;;1.53;;
69712;SDS011;56980;51.826;4.424;2022-07-23T14:00:36;3.63;;;2.17;;
69712;SDS011;56980;51.826;4.424;2022-07-23T14:03:04;9.35;;;2.47;;
69712;SDS011;56980;51.826;4.424;2022-07-23T14:05:29;5.07;;;2.00;;
69712;SDS011;56980;51.826;4.424;2022-07-23T14:07:56;3.75;;;2.25;;
69712;SDS011;56980;51.826;4.424;2022-07-23T14:10:23;5.13;;;2.63;;
69712;SDS011;56980;51.826;4.424;2022-07-23T14:12:49;4.85;;;2.80;;
69712;SDS011;56980;51.826;4.424;2022-07-23T14:15:17;2.72;;;1.83;;
69712;SDS011;56980;51.826;4.424;2022-07-23T14:17:44;5.68;;;1.83;;
69712;SDS011;56980;51.826;4.424;2022-07-23T14:20:11;2.67;;;1.67;;
69712;SDS011;56980;51.826;4.424;2022-07-23T14:22:38;2.58;;;1.75;;
69712;SDS011;56980;51.826;4.424;2022-07-23T14:25:04;4.50;;;2.10;;
69712;SDS011;56980;51.826;4.424;2022-07-23T14:27:30;4.07;;;2.60;;
69712;SDS011;56980;51.826;4.424;2022-07-23T14:29:56;3.50;;;2.87;;
69712;SDS011;56980;51.826;4.424;2022-07-23T14:32:21;3.97;;;2.80;;
69712;SDS011;56980;51.826;4.424;2022-07-23T14:34:47;4.07;;;2.60;;
69712;SDS011;56980;51.826;4.424;2022-07-23T14:37:13;5.10;;;1.90;;
69712;SDS011;56980;51.826;4.424;2022-07-23T14:39:39;3.57;;;2.10;;
69712;SDS011;56980;51.826;4.424;2022-07-23T14:42:06;7.65;;;2.55;;
69712;SDS011;56980;51.826;4.424;2022-07-23T14:44:33;4.40;;;2.47;;
69712;SDS011;56980;51.826;4.424;2022-07-23T14:46:59;2.77;;;2.20;;
69712;SDS011;56980;51.826;4.424;2022-07-23T14:49:25;3.30;;;2.40;;
69712;SDS011;56980;51.826;4.424;2022-07-23T14:51:51;5.07;;;2.50;;
69712;SDS011;56980;51.826;4.424;2022-07-23T14:54:16;5.33;;;2.70;;
69712;SDS011;56980;51.826;4.424;2022-07-23T14:56:42;4.40;;;2.30;;
69712;SDS011;56980;51.826;4.424;2022-07-23T14:59:07;3.83;;;2.30;;
69712;SDS011;56980;51.826;4.424;2022-07-23T15:01:33;2.83;;;1.88;;
69712;SDS011;56980;51.826;4.424;2022-07-23T15:03:59;3.15;;;2.20;;
69712;SDS011;56980;51.826;4.424;2022-07-23T15:06:25;5.73;;;2.60;;
69712;SDS011;56980;51.826;4.424;2022-07-23T15:08:51;4.33;;;2.30;;
69712;SDS011;56980;51.826;4.424;2022-07-23T15:11:16;4.93;;;2.37;;
69712;SDS011;56980;51.826;4.424;2022-07-23T15:13:41;5.60;;;1.98;;
69712;SDS011;56980;51.826;4.424;2022-07-23T15:16:09;5.13;;;1.80;;
69712;SDS011;56980;51.826;4.424;2022-07-23T15:18:37;6.85;;;2.20;;
69712;SDS011;56980;51.826;4.424;2022-07-23T15:21:03;3.10;;;2.20;;
69712;SDS011;56980;51.826;4.424;2022-07-23T15:23:29;3.53;;;2.10;;
69712;SDS011;56980;51.826;4.424;2022-07-23T15:25:55;7.03;;;2.38;;
69712;SDS011;56980;51.826;4.424;2022-07-23T15:28:21;6.60;;;2.60;;
69712;SDS011;56980;51.826;4.424;2022-07-23T15:30:48;3.15;;;2.47;;
69712;SDS011;56980;51.826;4.424;2022-07-23T15:33:17;4.30;;;2.22;;
69712;SDS011;56980;51.826;4.424;2022-07-23T15:35:42;5.70;;;2.47;;
69712;SDS011;56980;51.826;4.424;2022-07-23T15:38:07;4.40;;;2.13;;
69712;SDS011;56980;51.826;4.424;2022-07-23T15:40:33;2.75;;;2.03;;